createdAt,value
2023-03-19T00:00:32.267Z,100713.53
2023-03-19T00:02:58.890Z,100710.50
2023-03-19T00:05:25.510Z,100704.59
2023-03-19T00:07:51.938Z,100704.91
2023-03-19T00:10:18.542Z,100712.44
2023-03-19T00:12:44.952Z,100703.09
2023-03-19T00:15:14.225Z,100710.94
2023-03-19T00:17:42.729Z,100703.88
2023-03-19T00:20:11.002Z,100702.78
2023-03-19T00:22:37.662Z,100707.00
2023-03-19T00:25:04.436Z,100709.22
2023-03-19T00:27:31.131Z,100707.16
2023-03-19T00:29:57.525Z,100702.03
2023-03-19T00:32:23.948Z,100707.31
2023-03-19T00:34:50.908Z,100702.19
2023-03-19T00:37:17.426Z,100708.91
2023-03-19T00:39:43.984Z,100707.16
2023-03-19T00:42:10.544Z,100702.84
2023-03-19T00:44:36.955Z,100705.56
2023-03-19T00:47:03.416Z,100705.88
2023-03-19T00:49:29.867Z,100699.63
2023-03-19T00:51:56.285Z,100697.25
2023-03-19T00:54:22.749Z,100703.34
2023-03-19T00:56:49.209Z,100710.03
2023-03-19T00:59:15.690Z,100703.00
2023-03-19T01:01:42.140Z,100706.03
2023-03-19T01:04:08.707Z,100705.06
2023-03-19T01:06:35.279Z,100705.38
2023-03-19T01:09:01.720Z,100712.59
2023-03-19T01:11:28.289Z,100727.63
2023-03-19T01:13:54.718Z,100726.66
2023-03-19T01:16:21.160Z,100733.50
2023-03-19T01:18:47.618Z,100723.59
2023-03-19T01:21:14.509Z,100727.44
2023-03-19T01:23:40.971Z,100714.16
2023-03-19T01:26:08.244Z,100718.31
2023-03-19T01:28:34.662Z,100724.72
2023-03-19T01:31:02.787Z,100740.22
2023-03-19T01:33:29.232Z,100745.34
2023-03-19T01:35:55.899Z,100744.09
2023-03-19T01:38:22.336Z,100748.75
2023-03-19T01:40:49.057Z,100739.81
2023-03-19T01:43:24.778Z,100734.47
2023-03-19T01:45:56.609Z,100734.47
2023-03-19T01:48:37.574Z,100736.72
2023-03-19T01:51:07.339Z,100733.22
2023-03-19T01:53:36.332Z,100727.78
2023-03-19T01:56:28.515Z,100733.88
2023-03-19T01:58:58.751Z,100734.38
2023-03-19T02:01:27.778Z,100738.69
2023-03-19T02:03:54.341Z,100742.38
2023-03-19T02:06:22.150Z,100736.28
2023-03-19T02:08:49.767Z,100728.09
2023-03-19T02:11:16.908Z,100727.66
2023-03-19T02:13:43.747Z,100727.31
2023-03-19T02:16:10.657Z,100714.22
2023-03-19T02:18:37.225Z,100711.16
2023-03-19T02:21:08.076Z,100706.38
2023-03-19T02:23:47.326Z,100705.88
2023-03-19T02:26:23.044Z,100706.03
2023-03-19T02:28:52.004Z,100706.19
2023-03-19T02:31:20.556Z,100704.91
2023-03-19T02:34:27.104Z,100711.31
2023-03-19T02:37:05.458Z,100712.28
2023-03-19T02:39:38.428Z,100708.25
2023-03-19T02:42:05.981Z,100712.56
2023-03-19T02:44:32.432Z,100711.31
2023-03-19T02:46:59.639Z,100713.53
2023-03-19T02:49:26.202Z,100719.91
2023-03-19T02:51:52.604Z,100758.22
2023-03-19T02:54:19.048Z,100779.00
2023-03-19T02:56:46.093Z,100746.69
2023-03-19T02:59:13.236Z,100764.28
2023-03-19T03:01:39.700Z,100755.47
2023-03-19T03:04:06.190Z,100725.97
2023-03-19T03:06:32.668Z,100727.88
2023-03-19T03:08:59.119Z,100741.00
2023-03-19T03:11:25.556Z,100736.81
2023-03-19T03:13:51.988Z,100746.13
2023-03-19T03:16:18.635Z,100741.28
2023-03-19T03:18:45.237Z,100752.66
2023-03-19T03:21:11.710Z,100761.63
2023-03-19T03:23:38.215Z,100769.16
2023-03-19T03:26:04.720Z,100774.59
2023-03-19T03:28:31.116Z,100765.56
2023-03-19T03:31:02.260Z,100767.16
2023-03-19T03:33:29.261Z,100773.44
2023-03-19T03:35:56.603Z,100769.75
2023-03-19T03:38:23.556Z,100759.69
2023-03-19T03:40:53.625Z,100764.63
2023-03-19T03:43:21.129Z,100764.97
2023-03-19T03:45:48.696Z,100764.63
2023-03-19T03:48:16.018Z,100768.97
2023-03-19T03:50:42.726Z,100764.38
2023-03-19T03:53:10.033Z,100777.50
2023-03-19T03:55:36.815Z,100773.78
2023-03-19T03:58:03.574Z,100759.81
2023-03-19T04:00:30.009Z,100767.00
2023-03-19T04:02:56.651Z,100766.09
2023-03-19T04:05:23.111Z,100759.84
2023-03-19T04:07:49.572Z,100766.41
2023-03-19T04:10:15.993Z,100759.22
2023-03-19T04:12:42.381Z,100750.44
2023-03-19T04:15:11.055Z,100764.38
2023-03-19T04:17:38.636Z,100761.63
2023-03-19T04:20:05.670Z,100757.41
2023-03-19T04:22:32.115Z,100749.41
2023-03-19T04:24:58.587Z,100753.56
2023-03-19T04:27:25.313Z,100738.59
2023-03-19T04:29:51.831Z,100744.44
2023-03-19T04:32:18.467Z,100736.41
2023-03-19T04:34:44.929Z,100744.09
2023-03-19T04:37:11.429Z,100730.94
2023-03-19T04:39:37.845Z,100739.78
2023-03-19T04:42:04.434Z,100743.72
2023-03-19T04:44:32.059Z,100740.19
2023-03-19T04:46:58.496Z,100741.13
2023-03-19T04:49:25.893Z,100734.34
2023-03-19T04:51:52.465Z,100741.44
2023-03-19T04:54:18.890Z,100751.09
2023-03-19T04:56:45.303Z,100758.50
2023-03-19T04:59:11.749Z,100763.09
2023-03-19T05:01:38.290Z,100743.88
2023-03-19T05:04:05.015Z,100760.31
2023-03-19T05:06:32.163Z,100772.66
2023-03-19T05:08:58.752Z,100749.16
2023-03-19T05:11:25.987Z,100725.06
2023-03-19T05:13:52.545Z,100749.03
2023-03-19T05:16:18.957Z,100762.13
2023-03-19T05:18:45.750Z,100777.06
2023-03-19T05:21:13.003Z,100790.19
2023-03-19T05:23:39.788Z,100789.72
2023-03-19T05:26:06.925Z,100788.97
2023-03-19T05:28:33.615Z,100789.75
2023-03-19T05:31:00.408Z,100776.72
2023-03-19T05:33:26.850Z,100757.78
2023-03-19T05:35:53.328Z,100765.28
2023-03-19T05:38:19.922Z,100762.34
2023-03-19T05:40:46.886Z,100759.31
2023-03-19T05:43:13.366Z,100758.25
2023-03-19T05:45:40.419Z,100770.59
2023-03-19T05:48:06.885Z,100783.56
2023-03-19T05:50:34.030Z,100774.94
2023-03-19T05:53:00.935Z,100771.06
2023-03-19T05:55:27.397Z,100764.06
2023-03-19T05:57:53.854Z,100767.94
2023-03-19T06:00:21.106Z,100761.22
2023-03-19T06:02:47.541Z,100751.28
2023-03-19T06:05:14.061Z,100739.38
2023-03-19T06:07:40.783Z,100734.78
2023-03-19T06:10:07.830Z,100735.72
2023-03-19T06:12:34.258Z,100724.84
2023-03-19T06:15:00.814Z,100730.00
2023-03-19T06:17:27.203Z,100730.06
2023-03-19T06:19:53.609Z,100726.19
2023-03-19T06:22:20.018Z,100730.63
2023-03-19T06:24:46.447Z,100727.91
2023-03-19T06:27:12.977Z,100734.72
2023-03-19T06:29:39.384Z,100760.09
2023-03-19T06:32:05.981Z,100780.53
2023-03-19T06:34:32.402Z,100802.78
2023-03-19T06:36:58.809Z,100820.25
2023-03-19T06:39:25.338Z,100818.34
2023-03-19T06:41:51.870Z,100817.34
2023-03-19T06:44:18.436Z,100799.56
2023-03-19T06:46:45.053Z,100798.38
2023-03-19T06:49:11.706Z,100790.03
2023-03-19T06:51:38.400Z,100788.66
2023-03-19T06:54:04.838Z,100764.28
2023-03-19T06:56:31.288Z,100764.81
2023-03-19T06:58:57.716Z,100779.50
2023-03-19T07:01:24.219Z,100790.38
2023-03-19T07:03:50.991Z,100786.06
2023-03-19T07:06:17.451Z,100780.09
2023-03-19T07:08:46.289Z,100780.25
2023-03-19T07:11:13.520Z,100780.25
2023-03-19T07:13:40.215Z,100778.13
2023-03-19T07:16:07.189Z,100778.28
2023-03-19T07:18:33.902Z,100772.75
2023-03-19T07:21:00.427Z,100772.28
2023-03-19T07:23:26.861Z,100765.91
2023-03-19T07:25:53.262Z,100771.94
2023-03-19T07:28:19.663Z,100777.88
2023-03-19T07:30:46.040Z,100784.00
2023-03-19T07:33:12.996Z,100785.19
2023-03-19T07:35:39.489Z,100787.72
2023-03-19T07:38:05.985Z,100792.34
2023-03-19T07:40:32.762Z,100786.69
2023-03-19T07:42:59.391Z,100767.94
2023-03-19T07:45:25.777Z,100755.28
2023-03-19T07:47:52.592Z,100742.22
2023-03-19T07:50:19.004Z,100745.63
2023-03-19T07:52:47.786Z,100755.66
2023-03-19T07:55:14.946Z,100748.75
2023-03-19T07:57:41.397Z,100744.78
2023-03-19T08:00:08.669Z,100742.97
2023-03-19T08:02:35.433Z,100751.16
2023-03-19T08:05:04.668Z,100758.91
2023-03-19T08:07:31.849Z,100774.63
2023-03-19T08:09:58.705Z,100766.53
2023-03-19T08:12:25.976Z,100772.03
2023-03-19T08:14:52.444Z,100776.47
2023-03-19T08:17:19.143Z,100780.09
2023-03-19T08:19:46.709Z,100774.03
2023-03-19T08:22:13.432Z,100783.19
2023-03-19T08:24:40.186Z,100789.66
2023-03-19T08:27:07.887Z,100790.22
2023-03-19T08:29:34.511Z,100794.56
2023-03-19T08:32:01.299Z,100794.00
2023-03-19T08:34:27.790Z,100806.09
2023-03-19T08:36:54.184Z,100811.91
2023-03-19T08:39:20.837Z,100813.41
2023-03-19T08:41:47.296Z,100822.06
2023-03-19T08:44:14.041Z,100823.44
2023-03-19T08:46:40.554Z,100833.25
2023-03-19T08:49:07.005Z,100824.69
2023-03-19T08:51:33.504Z,100826.75
2023-03-19T08:54:00.225Z,100826.28
2023-03-19T08:56:26.662Z,100834.94
2023-03-19T08:58:53.144Z,100830.84
2023-03-19T09:01:19.749Z,100829.91
2023-03-19T09:03:46.269Z,100836.72
2023-03-19T09:06:14.513Z,100828.88
2023-03-19T09:08:42.062Z,100828.47
2023-03-19T09:11:10.232Z,100836.00
2023-03-19T09:13:37.456Z,100829.38
2023-03-19T09:16:04.636Z,100822.28
2023-03-19T09:18:31.351Z,100828.69
2023-03-19T09:20:57.756Z,100815.81
2023-03-19T09:23:24.337Z,100811.50
2023-03-19T09:25:51.276Z,100815.34
2023-03-19T09:28:17.916Z,100830.97
2023-03-19T09:30:48.961Z,100843.09
2023-03-19T09:33:17.939Z,100858.00
2023-03-19T09:35:49.749Z,100857.81
2023-03-19T09:38:16.410Z,100864.41
2023-03-19T09:40:46.629Z,100866.22
2023-03-19T09:43:34.654Z,100852.50
2023-03-19T09:46:06.149Z,100862.72
2023-03-19T09:48:43.373Z,100857.69
2023-03-19T09:51:19.478Z,100849.22
2023-03-19T09:54:08.814Z,100856.47
2023-03-19T09:56:35.431Z,100854.75
2023-03-19T09:59:03.206Z,100859.13
2023-03-19T10:01:37.479Z,100862.69
2023-03-19T10:04:33.862Z,100871.53
2023-03-19T10:07:29.602Z,100866.41
2023-03-19T10:10:21.873Z,100863.59
2023-03-19T10:13:20.641Z,100868.75
2023-03-19T10:15:47.860Z,100855.72
2023-03-19T10:18:21.623Z,100867.50
2023-03-19T10:21:01.230Z,100862.03
2023-03-19T10:24:12.516Z,100861.47
2023-03-19T10:26:39.120Z,100854.38
2023-03-19T10:29:11.076Z,100856.44
2023-03-19T10:31:58.224Z,100860.31
2023-03-19T10:34:33.330Z,100862.16
2023-03-19T10:37:20.512Z,100868.91
2023-03-19T10:39:49.603Z,100861.56
2023-03-19T10:42:25.763Z,100862.72
2023-03-19T10:45:42.749Z,100869.88
2023-03-19T10:48:17.886Z,100867.19
2023-03-19T10:50:54.867Z,100870.41
2023-03-19T10:53:28.730Z,100875.28
2023-03-19T10:55:59.892Z,100871.28
2023-03-19T10:58:28.732Z,100871.47
2023-03-19T11:01:12.462Z,100879.53
2023-03-19T11:03:48.328Z,100873.94
2023-03-19T11:06:31.174Z,100882.97
2023-03-19T11:09:10.329Z,100877.50
2023-03-19T11:11:50.802Z,100883.75
2023-03-19T11:14:25.586Z,100878.72
2023-03-19T11:16:52.045Z,100887.69
2023-03-19T11:19:26.217Z,100875.34
2023-03-19T11:22:02.732Z,100880.47
2023-03-19T11:24:33.218Z,100884.75
2023-03-19T11:27:00.393Z,100877.50
2023-03-19T11:29:28.830Z,100880.25
2023-03-19T11:32:21.016Z,100875.78
2023-03-19T11:34:58.919Z,100881.28
2023-03-19T11:37:58.054Z,100877.75
2023-03-19T11:40:47.045Z,100871.91
2023-03-19T11:43:32.405Z,100872.97
2023-03-19T11:46:12.825Z,100870.69
2023-03-19T11:48:51.513Z,100872.28
2023-03-19T11:51:32.734Z,100874.06
2023-03-19T11:54:31.646Z,100878.03
2023-03-19T11:57:08.369Z,100875.91
2023-03-19T11:59:45.605Z,100874.50
2023-03-19T12:02:39.543Z,100874.78
2023-03-19T12:05:12.007Z,100874.78
2023-03-19T12:08:15.670Z,100872.00
2023-03-19T12:10:51.637Z,100871.06
2023-03-19T12:13:32.061Z,100882.03
2023-03-19T12:16:20.297Z,100874.31
2023-03-19T12:18:49.639Z,100870.47
2023-03-19T12:21:53.346Z,100876.16
2023-03-19T12:24:32.903Z,100869.16
2023-03-19T12:27:21.392Z,100868.72
2023-03-19T12:30:37.866Z,100856.66
2023-03-19T12:33:22.373Z,100853.47
2023-03-19T12:35:53.597Z,100855.25
2023-03-19T12:38:37.345Z,100853.56
2023-03-19T12:41:14.917Z,100843.19
2023-03-19T12:44:01.988Z,100851.44
2023-03-19T12:46:33.884Z,100853.47
2023-03-19T12:49:30.561Z,100845.31
2023-03-19T12:52:02.182Z,100844.19
2023-03-19T12:54:36.113Z,100848.41
2023-03-19T12:57:17.016Z,100842.69
2023-03-19T12:59:56.521Z,100851.16
2023-03-19T13:02:33.171Z,100852.50
2023-03-19T13:05:14.814Z,100844.66
2023-03-19T13:07:53.851Z,100859.66
2023-03-19T13:10:21.934Z,100855.38
2023-03-19T13:12:51.164Z,100862.16
2023-03-19T13:15:29.009Z,100862.13
2023-03-19T13:18:29.630Z,100856.19
2023-03-19T13:21:14.341Z,100856.53
2023-03-19T13:23:45.480Z,100860.06
2023-03-19T13:26:14.298Z,100862.31
2023-03-19T13:29:06.863Z,100861.78
2023-03-19T13:31:35.664Z,100860.38
2023-03-19T13:34:02.983Z,100860.91
2023-03-19T13:36:31.320Z,100861.06
2023-03-19T13:39:00.707Z,100859.31
2023-03-19T13:41:33.397Z,100863.41
2023-03-19T13:44:18.472Z,100861.88
2023-03-19T13:46:45.276Z,100856.22
2023-03-19T13:49:35.889Z,100862.66
2023-03-19T13:52:11.727Z,100856.53
2023-03-19T13:54:40.592Z,100858.41
2023-03-19T13:57:10.023Z,100852.91
2023-03-19T13:59:38.561Z,100857.31
2023-03-19T14:02:23.044Z,100854.94
2023-03-19T14:05:00.722Z,100846.03
2023-03-19T14:07:30.509Z,100846.31
2023-03-19T14:09:57.481Z,100849.59
2023-03-19T14:12:42.206Z,100849.81
2023-03-19T14:15:09.160Z,100852.44
2023-03-19T14:17:53.940Z,100849.31
2023-03-19T14:20:32.871Z,100858.22
2023-03-19T14:23:03.660Z,100855.03
2023-03-19T14:26:07.992Z,100845.72
2023-03-19T14:29:04.815Z,100848.84
2023-03-19T14:31:33.988Z,100851.13
2023-03-19T14:34:27.279Z,100851.44
2023-03-19T14:37:05.146Z,100843.47
2023-03-19T14:39:40.600Z,100842.63
2023-03-19T14:42:28.335Z,100843.31
2023-03-19T14:45:14.426Z,100849.13
2023-03-19T14:48:13.507Z,100846.72
2023-03-19T14:50:58.519Z,100838.69
2023-03-19T14:53:24.866Z,100841.00
2023-03-19T14:55:53.200Z,100844.03
2023-03-19T14:58:20.895Z,100841.50
2023-03-19T15:00:51.115Z,100846.22
2023-03-19T15:03:22.798Z,100847.38
2023-03-19T15:05:52.593Z,100838.53
2023-03-19T15:08:23.386Z,100846.41
2023-03-19T15:10:58.708Z,100840.63
2023-03-19T15:13:31.496Z,100844.69
2023-03-19T15:16:28.143Z,100840.19
2023-03-19T15:18:54.765Z,100839.69
2023-03-19T15:21:21.562Z,100835.63
2023-03-19T15:23:48.785Z,100839.81
2023-03-19T15:26:18.489Z,100840.44
2023-03-19T15:28:53.727Z,100831.50
2023-03-19T15:31:37.529Z,100831.25
2023-03-19T15:34:23.010Z,100832.06
2023-03-19T15:36:54.327Z,100827.53
2023-03-19T15:39:25.602Z,100827.00
2023-03-19T15:41:53.557Z,100824.59
2023-03-19T15:44:33.904Z,100828.16
2023-03-19T15:47:03.700Z,100824.97
2023-03-19T15:49:42.371Z,100824.09
2023-03-19T15:52:14.728Z,100827.47
2023-03-19T15:54:42.179Z,100836.75
2023-03-19T15:57:11.559Z,100842.69
2023-03-19T15:59:38.367Z,100842.25
2023-03-19T16:02:33.385Z,100836.34
2023-03-19T16:05:21.098Z,100830.66
2023-03-19T16:07:55.156Z,100835.00
2023-03-19T16:10:42.799Z,100834.47
2023-03-19T16:13:23.420Z,100839.63
2023-03-19T16:16:01.012Z,100829.09
2023-03-19T16:18:30.391Z,100838.44
2023-03-19T16:21:05.929Z,100846.41
2023-03-19T16:23:36.550Z,100838.91
2023-03-19T16:26:19.118Z,100848.91
2023-03-19T16:29:19.608Z,100850.22
2023-03-19T16:31:53.042Z,100853.59
2023-03-19T16:34:51.950Z,100855.09
2023-03-19T16:37:31.398Z,100846.31
2023-03-19T16:40:03.478Z,100854.16
2023-03-19T16:42:32.565Z,100846.94
2023-03-19T16:45:22.889Z,100844.91
2023-03-19T16:47:51.578Z,100854.56
2023-03-19T16:50:20.474Z,100847.41
2023-03-19T16:52:48.896Z,100849.25
2023-03-19T16:55:22.264Z,100844.06
2023-03-19T16:57:59.309Z,100849.78
2023-03-19T17:00:27.396Z,100846.06
2023-03-19T17:02:57.772Z,100850.22
2023-03-19T17:05:26.793Z,100860.97
2023-03-19T17:07:55.755Z,100848.22
2023-03-19T17:10:25.192Z,100851.59
2023-03-19T17:12:54.311Z,100849.78
2023-03-19T17:15:42.178Z,100849.56
2023-03-19T17:18:16.512Z,100855.19
2023-03-19T17:20:56.830Z,100854.09
2023-03-19T17:23:26.862Z,100854.22
2023-03-19T17:25:54.313Z,100858.19
2023-03-19T17:28:21.408Z,100856.56
2023-03-19T17:30:48.266Z,100858.31
2023-03-19T17:33:33.023Z,100852.94
2023-03-19T17:35:59.569Z,100862.53
2023-03-19T17:38:31.962Z,100862.31
2023-03-19T17:40:58.484Z,100861.66
2023-03-19T17:43:24.926Z,100868.41
2023-03-19T17:45:51.483Z,100861.91
2023-03-19T17:48:23.928Z,100860.84
2023-03-19T17:50:50.685Z,100870.78
2023-03-19T17:53:21.063Z,100870.63
2023-03-19T17:55:47.543Z,100869.69
2023-03-19T17:58:19.597Z,100863.66
2023-03-19T18:00:47.844Z,100865.34
2023-03-19T18:03:25.256Z,100869.09
2023-03-19T18:05:51.935Z,100869.44
2023-03-19T18:08:22.236Z,100869.09
2023-03-19T18:10:48.639Z,100868.84
2023-03-19T18:13:15.188Z,100863.44
2023-03-19T18:15:44.973Z,100864.47
2023-03-19T18:18:17.941Z,100861.59
2023-03-19T18:20:45.092Z,100858.38
2023-03-19T18:23:13.169Z,100852.00
2023-03-19T18:25:39.897Z,100860.09
2023-03-19T18:28:06.321Z,100862.81
2023-03-19T18:30:35.647Z,100852.44
2023-03-19T18:33:05.363Z,100851.38
2023-03-19T18:35:36.913Z,100854.44
2023-03-19T18:38:03.958Z,100862.19
2023-03-19T18:40:32.664Z,100857.84
2023-03-19T18:42:59.450Z,100859.09
2023-03-19T18:45:30.527Z,100859.16
2023-03-19T18:47:57.235Z,100856.56
2023-03-19T18:50:27.132Z,100864.63
2023-03-19T18:52:53.922Z,100857.91
2023-03-19T18:55:23.202Z,100862.91
2023-03-19T18:58:00.212Z,100861.47
2023-03-19T19:00:29.644Z,100870.78
2023-03-19T19:02:58.032Z,100871.44
2023-03-19T19:05:27.764Z,100872.44
2023-03-19T19:07:55.924Z,100880.97
2023-03-19T19:10:24.245Z,100875.03
2023-03-19T19:12:53.387Z,100881.84
2023-03-19T19:15:24.323Z,100888.03
2023-03-19T19:17:51.978Z,100887.31
2023-03-19T19:20:24.797Z,100885.56
2023-03-19T19:25:30.089Z,100881.13
2023-03-19T19:28:14.495Z,100883.50
2023-03-19T19:30:41.050Z,100884.63
2023-03-19T19:33:21.966Z,100879.78
2023-03-19T19:35:49.034Z,100885.81
2023-03-19T19:38:15.970Z,100885.72
2023-03-19T19:40:43.758Z,100885.56
2023-03-19T19:43:19.977Z,100886.97
2023-03-19T19:45:48.466Z,100882.50
2023-03-19T19:48:21.215Z,100874.66
2023-03-19T19:50:48.791Z,100880.13
2023-03-19T19:53:15.565Z,100884.28
2023-03-19T19:55:43.675Z,100882.03
2023-03-19T19:58:28.153Z,100889.97
2023-03-19T20:01:03.489Z,100892.09
2023-03-19T20:03:33.063Z,100890.56
2023-03-19T20:06:02.230Z,100893.28
2023-03-19T20:08:29.069Z,100900.97
2023-03-19T20:10:56.545Z,100892.44
2023-03-19T20:13:34.599Z,100892.97
2023-03-19T20:16:02.174Z,100893.91
2023-03-19T20:18:32.221Z,100899.81
2023-03-19T20:20:59.685Z,100893.69
2023-03-19T20:23:26.630Z,100885.97
2023-03-19T20:25:54.799Z,100892.53
2023-03-19T20:28:34.201Z,100898.75
2023-03-19T20:31:02.698Z,100904.03
2023-03-19T20:33:31.261Z,100899.50
2023-03-19T20:35:58.676Z,100898.84
2023-03-19T20:38:27.143Z,100898.41
2023-03-19T20:40:56.339Z,100895.03
2023-03-19T20:43:29.600Z,100903.28
2023-03-19T20:46:03.036Z,100902.66
2023-03-19T20:48:31.716Z,100906.63
2023-03-19T20:51:01.054Z,100905.63
2023-03-19T20:53:28.380Z,100905.41
2023-03-19T20:55:55.305Z,100905.88
2023-03-19T20:58:30.062Z,100913.00
2023-03-19T21:00:58.559Z,100924.28
2023-03-19T21:03:27.843Z,100934.19
2023-03-19T21:06:00.021Z,100924.28
2023-03-19T21:08:34.161Z,100923.72
2023-03-19T21:11:01.236Z,100928.09
2023-03-19T21:13:28.368Z,100918.72
2023-03-19T21:15:55.025Z,100916.56
2023-03-19T21:18:22.101Z,100921.25
2023-03-19T21:20:54.621Z,100916.00
2023-03-19T21:23:35.303Z,100911.34
2023-03-19T21:26:18.258Z,100918.63
2023-03-19T21:28:47.484Z,100915.78
2023-03-19T21:31:20.402Z,100913.84
2023-03-19T21:33:51.588Z,100919.06
2023-03-19T21:36:19.115Z,100915.19
2023-03-19T21:38:46.015Z,100919.63
2023-03-19T21:41:35.856Z,100910.47
2023-03-19T21:44:18.533Z,100913.34
2023-03-19T21:46:47.732Z,100915.50
2023-03-19T21:49:14.856Z,100908.00
2023-03-19T21:51:43.668Z,100914.00
2023-03-19T21:54:11.262Z,100917.44
2023-03-19T21:56:40.648Z,100920.03
2023-03-19T21:59:13.416Z,100915.25
2023-03-19T22:01:40.550Z,100913.16
2023-03-19T22:04:07.055Z,100911.44
2023-03-19T22:06:33.845Z,100918.25
2023-03-19T22:09:00.375Z,100917.97
2023-03-19T22:11:28.260Z,100919.41
2023-03-19T22:14:05.279Z,100916.44
2023-03-19T22:16:32.355Z,100922.28
2023-03-19T22:18:59.047Z,100921.38
2023-03-19T22:21:25.672Z,100922.22
2023-03-19T22:23:52.329Z,100915.34
2023-03-19T22:26:30.918Z,100916.53
2023-03-19T22:29:00.658Z,100914.31
2023-03-19T22:31:27.944Z,100922.09
2023-03-19T22:33:54.797Z,100914.03
2023-03-19T22:36:21.310Z,100914.28
2023-03-19T22:38:48.862Z,100916.06
2023-03-19T22:41:36.786Z,100917.03
2023-03-19T22:44:06.663Z,100911.47
2023-03-19T22:46:33.422Z,100910.34
2023-03-19T22:48:59.851Z,100915.38
2023-03-19T22:51:27.646Z,100910.75
2023-03-19T22:53:54.810Z,100901.09
2023-03-19T22:56:22.361Z,100908.66
2023-03-19T22:58:49.610Z,100904.09
2023-03-19T23:01:20.584Z,100910.28
2023-03-19T23:03:48.814Z,100911.78
2023-03-19T23:06:29.175Z,100915.59
2023-03-19T23:08:56.966Z,100908.41
2023-03-19T23:11:24.195Z,100915.31
2023-03-19T23:13:50.640Z,100912.28
2023-03-19T23:16:23.305Z,100915.66
2023-03-19T23:18:51.329Z,100908.41
2023-03-19T23:21:19.260Z,100910.53
2023-03-19T23:23:46.155Z,100908.63
2023-03-19T23:26:31.347Z,100908.63
2023-03-19T23:29:03.546Z,100903.66
2023-03-19T23:31:30.249Z,100907.19
2023-03-19T23:33:56.667Z,100907.81
2023-03-19T23:36:23.132Z,100912.63
2023-03-19T23:38:49.563Z,100916.50
2023-03-19T23:41:26.415Z,100911.53
2023-03-19T23:43:53.386Z,100912.34
2023-03-19T23:46:20.217Z,100906.56
2023-03-19T23:48:47.069Z,100907.56
2023-03-19T23:51:14.710Z,100901.94
2023-03-19T23:53:42.333Z,100895.53
2023-03-19T23:56:19.931Z,100904.53
2023-03-19T23:58:48.705Z,100903.41
